Time;durP1;ratioP1;P1;durP2;ratioP2;P2;SDS_P1;SDS_P2;PMS_P1;PMS_P2;Temp;Humidity;BMP_temperature;BMP_pressure;BME280_temperature;BME280_humidity;BME280_pressure;Samples;Min_cycle;Max_cycle;Signal;HPM_P1;HPM_P2
2023/12/18 00:01:08;;;;;;;18.90;2.70;;;6.30;99.90;;;;;;1929248;73;25278;-89
2023/12/18 00:06:48;;;;;;;21.17;2.43;;;6.30;99.90;;;;;;1943382;72;26973;-89
2023/12/18 00:09:38;;;;;;;22.00;2.33;;;6.20;99.90;;;;;;1920614;73;25843;-90
2023/12/18 00:12:26;;;;;;;21.27;3.00;;;6.20;99.90;;;;;;1931105;73;25804;-89
2023/12/18 00:15:16;;;;;;;22.43;2.17;;;6.20;99.90;;;;;;1907667;72;25645;-91
2023/12/18 00:18:05;;;;;;;19.53;2.70;;;6.20;99.90;;;;;;1882026;75;25278;-91
2023/12/18 00:20:54;;;;;;;18.03;2.30;;;6.20;99.90;;;;;;1889181;75;25344;-89
2023/12/18 00:23:42;;;;;;;17.53;3.13;;;6.30;99.90;;;;;;1854642;75;25371;-91
2023/12/18 00:29:24;;;;;;;32.53;2.73;;;6.40;99.90;;;;;;1950848;72;27052;-89
2023/12/18 00:32:13;;;;;;;20.33;2.63;;;6.40;99.90;;;;;;1932370;73;25286;-89
2023/12/18 00:35:02;;;;;;;20.33;3.07;;;6.40;99.90;;;;;;1927476;73;25724;-89
2023/12/18 00:37:50;;;;;;;18.23;2.63;;;6.30;99.90;;;;;;1919864;73;25305;-89
2023/12/18 00:40:39;;;;;;;25.90;3.23;;;6.30;99.90;;;;;;1932540;73;25233;-87
2023/12/18 00:46:20;;;;;;;23.33;2.77;;;6.20;99.90;;;;;;1948758;72;27530;-89
2023/12/18 00:51:58;;;;;;;24.67;2.60;;;6.10;99.90;;;;;;1968700;72;26477;-90
2023/12/18 01:11:33;;;;;;;25.07;2.90;;;6.20;99.90;;;;;;1894905;74;27111;-89
2023/12/18 01:14:22;;;;;;;21.63;2.77;;;6.10;99.90;;;;;;1850036;76;25207;-91
2023/12/18 01:17:12;;;;;;;29.50;3.20;;;6.10;99.90;;;;;;1840306;77;25668;-91
2023/12/18 01:20:02;;;;;;;24.07;2.93;;;6.10;99.90;;;;;;1844555;77;25736;-89
2023/12/18 01:22:51;;;;;;;25.27;2.83;;;5.90;99.90;;;;;;1849013;77;25317;-91
2023/12/18 01:25:39;;;;;;;26.13;3.00;;;5.80;99.90;;;;;;1846580;77;25338;-91
2023/12/18 01:28:28;;;;;;;17.87;2.60;;;5.70;99.90;;;;;;1856566;77;25720;-90
2023/12/18 01:34:09;;;;;;;21.00;2.77;;;5.60;99.90;;;;;;1951808;72;27053;-89
2023/12/18 01:36:58;;;;;;;28.30;2.80;;;5.50;99.90;;;;;;1917385;73;25310;-91
2023/12/18 01:39:46;;;;;;;21.20;2.80;;;5.40;99.90;;;;;;1918471;73;25270;-91
2023/12/18 01:42:35;;;;;;;27.17;3.00;;;5.30;99.90;;;;;;1926764;73;25272;-89
2023/12/18 01:45:24;;;;;;;23.07;2.73;;;5.20;99.90;;;;;;1926595;73;25336;-91
2023/12/18 01:48:13;;;;;;;34.00;2.87;;;5.20;99.90;;;;;;1926602;73;25242;-91
2023/12/18 01:51:02;;;;;;;28.23;2.87;;;5.20;99.90;;;;;;1925678;73;25323;-91
2023/12/18 01:53:53;;;;;;;26.07;2.67;;;5.30;99.90;;;;;;1926547;73;25324;-91
2023/12/18 01:56:43;;;;;;;30.10;3.20;;;5.20;99.90;;;;;;1925192;73;25198;-91
2023/12/18 01:59:33;;;;;;;25.00;3.17;;;5.20;99.90;;;;;;1924585;73;25748;-91
2023/12/18 02:02:22;;;;;;;34.10;3.20;;;5.30;99.90;;;;;;1917825;73;25198;-91
2023/12/18 02:05:11;;;;;;;38.53;3.27;;;5.30;99.90;;;;;;1919172;73;25202;-90
2023/12/18 02:08:00;;;;;;;29.83;3.20;;;5.40;99.90;;;;;;1927858;73;25785;-90
2023/12/18 02:10:48;;;;;;;23.60;2.83;;;5.40;99.90;;;;;;1924271;73;25294;-90
2023/12/18 02:13:37;;;;;;;25.57;3.63;;;5.40;99.90;;;;;;1919376;73;25255;-90
2023/12/18 02:19:24;;;;;;;35.77;3.13;;;5.20;99.90;;;;;;1927151;72;28231;-89
2023/12/18 02:22:13;;;;;;;32.57;3.50;;;5.30;99.90;;;;;;1892819;73;25247;-91
2023/12/18 02:25:01;;;;;;;20.93;2.63;;;5.30;99.90;;;;;;1891157;75;25245;-91
2023/12/18 02:27:51;;;;;;;31.63;3.43;;;5.30;99.90;;;;;;1886941;73;25496;-89
2023/12/18 02:30:40;;;;;;;29.83;3.60;;;5.40;99.90;;;;;;1896028;75;25752;-89
2023/12/18 02:33:28;;;;;;;32.20;3.00;;;5.50;99.90;;;;;;1891169;75;25233;-91
2023/12/18 02:36:17;;;;;;;45.87;3.47;;;5.50;99.90;;;;;;1884548;75;25772;-91
2023/12/18 02:39:06;;;;;;;32.23;2.67;;;5.40;99.90;;;;;;1885959;75;25823;-91
2023/12/18 02:41:54;;;;;;;28.43;2.50;;;5.40;99.90;;;;;;1889499;75;25277;-90
2023/12/18 02:44:42;;;;;;;28.17;2.60;;;5.30;99.90;;;;;;1878692;76;25255;-90
2023/12/18 02:47:31;;;;;;;24.40;3.03;;;5.10;99.90;;;;;;1878244;76;25624;-90
2023/12/18 02:50:20;;;;;;;26.23;3.67;;;5.10;99.90;;;;;;1867696;76;25279;-90
2023/12/18 02:53:09;;;;;;;23.60;2.80;;;5.30;99.90;;;;;;1882228;76;25223;-90
2023/12/18 02:55:57;;;;;;;22.97;2.80;;;5.40;99.90;;;;;;1869491;76;25221;-90
2023/12/18 02:58:46;;;;;;;21.57;2.00;;;5.50;99.90;;;;;;1877420;76;25305;-90
2023/12/18 03:04:27;;;;;;;22.83;2.60;;;5.50;99.90;;;;;;1950014;72;27468;-89
2023/12/18 03:07:16;;;;;;;26.73;3.00;;;5.50;99.90;;;;;;1916614;73;25354;-91
2023/12/18 03:10:07;;;;;;;17.00;2.53;;;5.60;99.90;;;;;;1928292;73;25291;-91
2023/12/18 03:12:55;;;;;;;16.70;1.97;;;5.60;99.90;;;;;;1917361;73;25314;-91
2023/12/18 03:15:46;;;;;;;22.80;2.90;;;5.60;99.90;;;;;;1918234;73;25561;-89
2023/12/18 03:18:35;;;;;;;23.87;2.87;;;5.60;99.90;;;;;;1918856;73;25274;-91
2023/12/18 03:21:24;;;;;;;29.87;2.80;;;5.50;99.90;;;;;;1921560;73;25246;-91
2023/12/18 03:24:13;;;;;;;24.33;2.57;;;5.60;99.90;;;;;;1923546;73;25199;-89
2023/12/18 03:27:02;;;;;;;29.13;2.77;;;5.50;99.90;;;;;;1917694;73;25323;-89
2023/12/18 03:33:34;;;;;;;31.37;2.87;;;5.20;99.90;;;;;;1977648;71;28067;-89
2023/12/18 03:39:05;;;;;;;37.50;3.20;;;4.80;99.90;;;;;;1957254;70;27158;-89
2023/12/18 03:41:54;;;;;;;37.00;3.10;;;4.70;99.90;;;;;;1902917;75;25679;-90
2023/12/18 03:44:43;;;;;;;30.20;2.80;;;4.50;99.90;;;;;;1868973;75;25213;-90
2023/12/18 03:47:35;;;;;;;23.70;2.97;;;4.50;99.90;;;;;;1883727;75;25204;-90
2023/12/18 03:50:23;;;;;;;34.10;3.43;;;4.60;99.90;;;;;;1870575;75;25729;-90
2023/12/18 03:53:12;;;;;;;25.60;2.57;;;4.40;99.90;;;;;;1873133;76;25808;-90
2023/12/18 03:58:46;;;;;;;28.33;2.90;;;3.90;99.90;;;;;;1938427;72;27040;-89
2023/12/18 04:01:34;;;;;;;28.97;2.70;;;4.00;99.90;;;;;;1896316;75;25691;-91
2023/12/18 04:04:24;;;;;;;27.83;2.50;;;4.00;99.90;;;;;;1904799;75;25206;-89
2023/12/18 04:07:12;;;;;;;37.67;3.33;;;3.90;99.90;;;;;;1893703;73;25217;-91
2023/12/18 04:10:01;;;;;;;19.30;2.50;;;4.00;99.90;;;;;;1894227;75;25701;-91
2023/12/18 04:12:49;;;;;;;20.63;2.43;;;3.90;99.90;;;;;;1896588;73;25260;-91
2023/12/18 04:15:38;;;;;;;21.80;2.40;;;3.70;99.90;;;;;;1899331;73;25272;-91
2023/12/18 04:18:26;;;;;;;22.30;1.90;;;3.60;99.90;;;;;;1906446;73;25657;-91
2023/12/18 04:21:14;;;;;;;25.97;2.57;;;3.50;99.90;;;;;;1901071;75;25243;-89
2023/12/18 04:24:03;;;;;;;23.73;2.30;;;3.60;99.90;;;;;;1895383;75;25670;-91
2023/12/18 04:26:51;;;;;;;21.47;2.40;;;3.70;99.90;;;;;;1897338;75;25671;-89
2023/12/18 04:32:52;;;;;;;26.27;2.07;;;3.70;99.90;;;;;;1964542;71;27556;-89
2023/12/18 04:35:41;;;;;;;21.70;2.27;;;3.70;99.90;;;;;;1957037;71;25260;-90
2023/12/18 04:38:30;;;;;;;27.27;2.40;;;3.60;99.90;;;;;;1963493;71;25255;-90
2023/12/18 04:41:21;;;;;;;21.03;2.27;;;3.60;99.90;;;;;;1956284;72;25344;-90
2023/12/18 04:47:01;;;;;;;21.47;2.37;;;3.80;99.90;;;;;;1955956;72;26978;-91
2023/12/18 04:49:50;;;;;;;24.80;2.70;;;4.00;99.90;;;;;;1918255;73;25669;-91
2023/12/18 04:52:39;;;;;;;14.90;2.10;;;4.10;99.90;;;;;;1916611;75;25258;-91
2023/12/18 04:55:28;;;;;;;12.70;2.13;;;4.10;99.90;;;;;;1923555;73;25292;-91
2023/12/18 04:58:17;;;;;;;9.53;1.90;;;4.10;99.90;;;;;;1916563;75;25335;-91
2023/12/18 05:01:06;;;;;;;14.63;2.03;;;4.10;99.90;;;;;;1927194;73;25221;-91
2023/12/18 05:03:54;;;;;;;21.93;2.47;;;4.20;99.90;;;;;;1928958;73;25565;-91
2023/12/18 05:06:43;;;;;;;17.07;2.40;;;4.30;99.90;;;;;;1935862;73;25635;-91
2023/12/18 05:09:32;;;;;;;24.27;2.27;;;4.40;99.90;;;;;;1920163;73;25219;-89
2023/12/18 05:12:22;;;;;;;24.33;2.53;;;4.50;99.90;;;;;;1921595;73;25315;-91
2023/12/18 05:15:11;;;;;;;27.80;2.47;;;4.40;99.90;;;;;;1922513;73;26310;-91
2023/12/18 05:18:00;;;;;;;22.07;1.90;;;4.40;99.90;;;;;;1927266;73;25237;-91
2023/12/18 05:20:48;;;;;;;25.97;2.20;;;4.30;99.90;;;;;;1925628;73;25221;-91
2023/12/18 05:23:37;;;;;;;14.37;2.07;;;4.20;99.90;;;;;;1924807;73;25630;-91
2023/12/18 05:26:26;;;;;;;18.77;2.00;;;4.20;99.90;;;;;;1919356;73;25629;-91
2023/12/18 05:29:14;;;;;;;23.43;2.20;;;4.30;99.90;;;;;;1927428;73;25903;-91
2023/12/18 05:46:55;;;;;;;21.83;2.37;;;4.20;99.90;;;;;;1975950;71;26375;-89
2023/12/18 05:49:44;;;;;;;13.73;2.00;;;4.20;99.90;;;;;;1997212;70;25193;-91
2023/12/18 05:52:33;;;;;;;19.53;1.90;;;4.30;99.90;;;;;;1987136;70;25258;-89
2023/12/18 05:55:22;;;;;;;21.27;2.63;;;4.30;99.90;;;;;;2005459;70;25217;-89
2023/12/18 05:58:11;;;;;;;20.83;2.27;;;4.40;99.90;;;;;;1998980;71;25661;-91
2023/12/18 06:01:00;;;;;;;14.10;1.67;;;4.30;99.90;;;;;;1996311;70;25267;-91
2023/12/18 06:03:50;;;;;;;22.03;2.47;;;4.40;99.90;;;;;;2006313;71;25180;-92
2023/12/18 06:06:39;;;;;;;15.17;1.87;;;4.50;99.90;;;;;;2007701;71;25753;-91
2023/12/18 06:09:29;;;;;;;10.53;1.83;;;4.80;99.90;;;;;;2012756;70;25632;-91
2023/12/18 06:12:20;;;;;;;12.40;1.70;;;4.70;99.90;;;;;;1961411;73;25186;-92
2023/12/18 06:15:10;;;;;;;11.57;2.13;;;4.70;99.90;;;;;;1953619;73;25699;-91
2023/12/18 06:17:59;;;;;;;21.63;1.97;;;4.70;99.90;;;;;;1949918;72;25683;-91
2023/12/18 06:20:48;;;;;;;14.47;1.60;;;4.80;99.90;;;;;;1906435;75;25718;-91
2023/12/18 06:26:23;;;;;;;13.97;2.10;;;4.90;99.90;;;;;;1914592;74;26794;-89
2023/12/18 06:33:26;;;;;;;13.07;1.60;;;5.10;99.90;;;;;;1978667;71;27009;-89
2023/12/18 07:01:59;;;;;;;11.20;1.60;;;5.10;99.90;;;;;;1948200;71;27052;-90
2023/12/18 07:07:43;;;;;;;12.73;1.77;;;5.50;99.90;;;;;;1951977;72;26887;-92
2023/12/18 07:10:31;;;;;;;13.17;1.50;;;5.20;99.90;;;;;;1934041;72;25188;-92
2023/12/18 07:13:20;;;;;;;15.93;1.60;;;5.10;99.90;;;;;;1946350;72;25215;-90
2023/12/18 07:16:10;;;;;;;8.43;1.60;;;5.10;99.90;;;;;;1937585;72;25264;-90
2023/12/18 07:18:58;;;;;;;7.33;1.63;;;4.90;99.90;;;;;;1925338;73;25650;-92
2023/12/18 07:21:47;;;;;;;11.70;1.67;;;4.60;99.90;;;;;;1944830;73;25249;-91
2023/12/18 07:24:36;;;;;;;11.10;1.50;;;4.50;99.90;;;;;;1941619;73;25221;-91
2023/12/18 07:27:25;;;;;;;10.90;1.60;;;4.20;99.90;;;;;;1963160;72;25354;-91
2023/12/18 07:30:16;;;;;;;7.83;1.47;;;3.80;99.90;;;;;;1930192;72;25165;-91
2023/12/18 07:33:06;;;;;;;15.67;2.00;;;3.40;99.90;;;;;;1935433;73;25282;-91
2023/12/18 07:38:46;;;;;;;16.83;1.90;;;3.20;99.90;;;;;;1952355;72;27449;-92
2023/12/18 07:41:35;;;;;;;15.70;1.93;;;3.20;99.90;;;;;;1937965;72;25293;-92
2023/12/18 07:44:25;;;;;;;8.53;1.63;;;3.30;99.90;;;;;;1893583;75;25348;-92
2023/12/18 07:50:09;;;;;;;18.03;1.90;;;3.60;99.90;;;;;;1946915;72;27524;-92
2023/12/18 07:52:59;;;;;;;11.87;1.60;;;3.70;99.90;;;;;;1922997;74;25311;-92
2023/12/18 07:55:47;;;;;;;12.33;1.87;;;3.80;99.90;;;;;;1922609;73;25636;-91
2023/12/18 07:58:36;;;;;;;13.30;1.77;;;3.80;99.90;;;;;;1918488;74;25227;-92
2023/12/18 08:01:25;;;;;;;13.10;1.73;;;3.90;99.90;;;;;;1947976;73;25315;-92
2023/12/18 08:04:15;;;;;;;9.87;1.93;;;4.10;99.90;;;;;;1911374;74;25251;-91
2023/12/18 08:07:05;;;;;;;16.17;1.97;;;4.10;99.90;;;;;;1910912;74;25296;-92
2023/12/18 08:09:54;;;;;;;16.70;2.00;;;4.00;99.90;;;;;;1926423;73;25346;-90
2023/12/18 08:12:43;;;;;;;14.17;1.70;;;4.10;99.90;;;;;;1933834;73;25323;-92
2023/12/18 08:15:32;;;;;;;24.00;2.00;;;4.10;99.90;;;;;;1924751;73;25314;-90
2023/12/18 08:18:22;;;;;;;12.93;2.17;;;4.20;99.90;;;;;;1918249;74;25395;-91
2023/12/18 08:21:14;;;;;;;12.53;1.53;;;4.20;99.90;;;;;;1947530;73;25225;-90
2023/12/18 08:24:03;;;;;;;16.50;1.87;;;4.30;99.90;;;;;;1916567;74;25702;-91
2023/12/18 08:26:52;;;;;;;17.30;2.10;;;4.30;99.90;;;;;;1917324;73;25265;-91
2023/12/18 08:32:24;;;;;;;11.30;1.50;;;4.30;99.90;;;;;;1905368;74;27062;-90
2023/12/18 08:35:13;;;;;;;12.27;1.43;;;4.40;99.90;;;;;;1879569;76;25177;-92
2023/12/18 08:38:03;;;;;;;11.90;2.00;;;4.40;99.90;;;;;;1880350;76;25204;-90
2023/12/18 08:40:52;;;;;;;13.20;1.90;;;4.30;99.90;;;;;;1871447;76;25181;-92
2023/12/18 08:43:43;;;;;;;11.77;1.43;;;4.30;99.90;;;;;;1885915;75;25705;-92
2023/12/18 08:46:32;;;;;;;17.97;2.00;;;4.40;99.90;;;;;;1860902;75;25278;-92
2023/12/18 08:49:22;;;;;;;15.47;2.30;;;4.40;99.90;;;;;;1889542;75;25331;-91
2023/12/18 08:52:10;;;;;;;16.23;1.93;;;4.30;99.90;;;;;;1886188;75;25825;-92
2023/12/18 08:54:59;;;;;;;16.47;1.80;;;4.40;99.90;;;;;;1876902;75;25258;-92
2023/12/18 08:57:47;;;;;;;12.27;1.47;;;4.50;99.90;;;;;;1875272;75;25283;-90
2023/12/18 09:03:35;;;;;;;12.83;1.70;;;4.60;99.90;;;;;;1952907;72;26854;-91
2023/12/18 09:06:20;;;;;;;15.00;2.10;;;4.60;99.90;;;;;;1916295;73;25227;-92
2023/12/18 09:09:11;;;;;;;14.80;1.83;;;4.60;99.90;;;;;;1920783;73;25594;-90
2023/12/18 09:12:02;;;;;;;8.97;1.70;;;4.60;99.90;;;;;;1927875;73;25756;-92
2023/12/18 09:14:53;;;;;;;12.93;2.10;;;4.60;99.90;;;;;;1918036;73;25297;-92
2023/12/18 09:32:28;;;;;;;17.87;1.73;;;4.40;99.90;;;;;;1945491;72;27637;-92
2023/12/18 09:49:31;;;;;;;20.13;2.10;;;4.70;99.90;;;;;;1918683;73;27545;-91
2023/12/18 10:07:00;;;;;;;22.03;1.77;;;4.60;99.90;;;;;;1891555;74;27158;-90
2023/12/18 10:12:43;;;;;;;13.67;2.07;;;4.90;99.90;;;;;;1945690;72;26945;-90
2023/12/18 10:29:36;;;;;;;20.97;1.97;;;5.00;99.90;;;;;;1936059;73;27689;-91
2023/12/18 14:39:42;;;;;;;2.93;0.73;;;4.80;99.90;;;;;;1873340;74;26804;-93
2023/12/18 15:05:19;;;;;;;0.97;0.60;;;4.70;99.90;;;;;;1943774;72;26923;-92
2023/12/18 15:16:34;;;;;;;1.23;1.13;;;4.80;99.90;;;;;;1930430;73;25795;-92
2023/12/18 17:56:06;;;;;;;8.93;1.40;;;4.40;99.90;;;;;;1931197;73;25242;-93
2023/12/18 22:32:41;;;;;;;2.00;0.83;;;5.70;99.90;;;;;;1999386;70;25241;-94
2023/12/18 23:11:36;;;;;;;1.33;0.40;;;6.00;99.90;;;;;;1939734;72;25144;-94
2023/12/18 23:18:05;;;;;;;0.57;0.30;;;5.90;99.90;;;;;;1952706;72;28159;-94
2023/12/18 23:21:25;;;;;;;0.40;0.40;;;5.90;99.90;;;;;;1941878;73;26757;-94
2023/12/18 23:31:09;;;;;;;0.60;0.60;;;5.80;99.90;;;;;;1992233;71;30537;-93
